sensor_id;sensor_type;location;lat;lon;timestamp;pressure;altitude;pressure_sealevel;temperature;humidity
10978;BME280;5542;48.272;10.794;2023-01-26T00:00:50;96091.00;;;-0.39;91.60
10978;BME280;5542;48.272;10.794;2023-01-26T00:03:17;96084.47;;;-0.52;91.85
10978;BME280;5542;48.272;10.794;2023-01-26T00:05:44;96083.94;;;-0.55;92.93
10978;BME280;5542;48.272;10.794;2023-01-26T00:08:10;96084.19;;;-0.66;93.86
10978;BME280;5542;48.272;10.794;2023-01-26T00:10:38;96088.91;;;-0.62;94.29
10978;BME280;5542;48.272;10.794;2023-01-26T00:13:08;96082.78;;;-0.35;92.14
10978;BME280;5542;48.272;10.794;2023-01-26T00:15:35;96082.38;;;-0.48;91.57
10978;BME280;5542;48.272;10.794;2023-01-26T00:18:02;96078.44;;;-0.60;92.54
10978;BME280;5542;48.272;10.794;2023-01-26T00:20:29;96074.44;;;-0.72;92.84
10978;BME280;5542;48.272;10.794;2023-01-26T00:22:55;96071.06;;;-0.73;93.87
10978;BME280;5542;48.272;10.794;2023-01-26T00:25:22;96072.09;;;-0.66;94.26
10978;BME280;5542;48.272;10.794;2023-01-26T00:27:49;96076.50;;;-0.58;94.29
10978;BME280;5542;48.272;10.794;2023-01-26T00:30:17;96068.44;;;-0.55;93.24
10978;BME280;5542;48.272;10.794;2023-01-26T00:32:43;96063.44;;;-0.57;92.60
10978;BME280;5542;48.272;10.794;2023-01-26T00:35:10;96064.28;;;-0.48;92.73
10978;BME280;5542;48.272;10.794;2023-01-26T00:37:37;96064.75;;;-0.53;92.88
10978;BME280;5542;48.272;10.794;2023-01-26T00:40:06;96068.50;;;-0.47;93.33
10978;BME280;5542;48.272;10.794;2023-01-26T00:42:33;96062.91;;;-0.42;93.56
10978;BME280;5542;48.272;10.794;2023-01-26T00:45:00;96055.97;;;-0.34;93.97
10978;BME280;5542;48.272;10.794;2023-01-26T00:47:28;96053.91;;;-0.30;93.65
10978;BME280;5542;48.272;10.794;2023-01-26T00:49:54;96060.22;;;-0.24;93.64
10978;BME280;5542;48.272;10.794;2023-01-26T00:52:21;96048.16;;;-0.16;93.18
10978;BME280;5542;48.272;10.794;2023-01-26T00:54:47;96050.28;;;-0.11;91.71
10978;BME280;5542;48.272;10.794;2023-01-26T00:57:14;96054.81;;;-0.13;89.38
10978;BME280;5542;48.272;10.794;2023-01-26T00:59:40;96055.56;;;-0.21;90.16
10978;BME280;5542;48.272;10.794;2023-01-26T01:02:07;96053.44;;;-0.26;90.94
10978;BME280;5542;48.272;10.794;2023-01-26T01:04:35;96061.03;;;-0.24;91.63
10978;BME280;5542;48.272;10.794;2023-01-26T01:07:01;96053.81;;;-0.20;91.69
10978;BME280;5542;48.272;10.794;2023-01-26T01:09:28;96055.41;;;-0.28;91.85
10978;BME280;5542;48.272;10.794;2023-01-26T01:11:54;96054.22;;;-0.33;90.77
10978;BME280;5542;48.272;10.794;2023-01-26T01:14:21;96048.91;;;-0.32;91.05
10978;BME280;5542;48.272;10.794;2023-01-26T01:16:47;96057.28;;;-0.38;91.52
10978;BME280;5542;48.272;10.794;2023-01-26T01:19:15;96057.50;;;-0.49;91.53
10978;BME280;5542;48.272;10.794;2023-01-26T01:21:44;96056.19;;;-0.53;91.76
10978;BME280;5542;48.272;10.794;2023-01-26T01:24:10;96052.78;;;-0.54;92.04
10978;BME280;5542;48.272;10.794;2023-01-26T01:26:38;96039.88;;;-0.54;92.38
10978;BME280;5542;48.272;10.794;2023-01-26T01:29:04;96044.13;;;-0.44;92.11
10978;BME280;5542;48.272;10.794;2023-01-26T01:31:32;96039.47;;;-0.41;92.17
10978;BME280;5542;48.272;10.794;2023-01-26T01:33:58;96044.19;;;-0.36;91.23
10978;BME280;5542;48.272;10.794;2023-01-26T01:36:25;96034.84;;;-0.29;90.38
10978;BME280;5542;48.272;10.794;2023-01-26T01:38:54;96029.19;;;-0.33;89.57
10978;BME280;5542;48.272;10.794;2023-01-26T01:41:21;96021.75;;;-0.36;89.83
10978;BME280;5542;48.272;10.794;2023-01-26T01:43:48;96024.84;;;-0.32;89.94
10978;BME280;5542;48.272;10.794;2023-01-26T01:46:25;96022.19;;;-0.40;89.57
10978;BME280;5542;48.272;10.794;2023-01-26T01:48:58;96022.09;;;-0.31;88.75
10978;BME280;5542;48.272;10.794;2023-01-26T01:51:30;96016.06;;;-0.39;89.02
10978;BME280;5542;48.272;10.794;2023-01-26T01:54:02;96016.72;;;-0.37;89.17
10978;BME280;5542;48.272;10.794;2023-01-26T01:56:31;96014.16;;;-0.37;89.10
10978;BME280;5542;48.272;10.794;2023-01-26T01:59:00;96008.00;;;-0.36;89.05
10978;BME280;5542;48.272;10.794;2023-01-26T02:01:28;96011.69;;;-0.39;88.28
10978;BME280;5542;48.272;10.794;2023-01-26T02:03:59;96015.16;;;-0.56;88.63
10978;BME280;5542;48.272;10.794;2023-01-26T02:06:29;96010.09;;;-0.40;87.29
10978;BME280;5542;48.272;10.794;2023-01-26T02:08:59;96012.72;;;-0.58;87.61
10978;BME280;5542;48.272;10.794;2023-01-26T02:11:30;96012.59;;;-0.56;88.18
10978;BME280;5542;48.272;10.794;2023-01-26T02:13:59;96005.75;;;-0.65;88.95
10978;BME280;5542;48.272;10.794;2023-01-26T02:16:27;96003.09;;;-0.73;89.02
10978;BME280;5542;48.272;10.794;2023-01-26T02:18:54;95998.28;;;-0.68;89.10
10978;BME280;5542;48.272;10.794;2023-01-26T02:21:21;95999.03;;;-0.76;89.00
10978;BME280;5542;48.272;10.794;2023-01-26T02:23:55;95998.19;;;-0.85;89.59
10978;BME280;5542;48.272;10.794;2023-01-26T02:26:26;95987.19;;;-0.87;89.90
10978;BME280;5542;48.272;10.794;2023-01-26T02:28:54;95985.19;;;-0.75;90.00
10978;BME280;5542;48.272;10.794;2023-01-26T02:31:21;95983.41;;;-0.74;90.02
10978;BME280;5542;48.272;10.794;2023-01-26T02:33:48;95986.63;;;-0.72;89.48
10978;BME280;5542;48.272;10.794;2023-01-26T02:36:18;95978.44;;;-0.68;89.76
10978;BME280;5542;48.272;10.794;2023-01-26T02:38:52;95975.56;;;-0.65;89.93
10978;BME280;5542;48.272;10.794;2023-01-26T02:41:20;95971.53;;;-0.59;89.85
10978;BME280;5542;48.272;10.794;2023-01-26T02:44:04;95961.25;;;-0.51;89.59
10978;BME280;5542;48.272;10.794;2023-01-26T02:46:32;95960.44;;;-0.52;89.62
10978;BME280;5542;48.272;10.794;2023-01-26T02:48:59;95967.06;;;-0.49;89.58
10978;BME280;5542;48.272;10.794;2023-01-26T02:51:43;95958.34;;;-0.48;89.03
10978;BME280;5542;48.272;10.794;2023-01-26T02:54:09;95958.69;;;-0.51;89.47
10978;BME280;5542;48.272;10.794;2023-01-26T02:56:56;95952.06;;;-0.45;90.19
10978;BME280;5542;48.272;10.794;2023-01-26T02:59:23;95948.69;;;-0.46;90.37
10978;BME280;5542;48.272;10.794;2023-01-26T03:01:52;95951.31;;;-0.38;90.27
10978;BME280;5542;48.272;10.794;2023-01-26T03:04:20;95947.75;;;-0.37;90.15
10978;BME280;5542;48.272;10.794;2023-01-26T03:06:47;95944.22;;;-0.36;89.90
10978;BME280;5542;48.272;10.794;2023-01-26T03:09:13;95953.28;;;-0.32;89.46
10978;BME280;5542;48.272;10.794;2023-01-26T03:11:40;95949.41;;;-0.28;88.77
10978;BME280;5542;48.272;10.794;2023-01-26T03:14:07;95944.03;;;-0.34;88.96
10978;BME280;5542;48.272;10.794;2023-01-26T03:16:35;95945.69;;;-0.33;89.52
10978;BME280;5542;48.272;10.794;2023-01-26T03:19:02;95940.81;;;-0.36;89.63
10978;BME280;5542;48.272;10.794;2023-01-26T03:21:46;95931.28;;;-0.36;89.53
10978;BME280;5542;48.272;10.794;2023-01-26T03:24:30;95937.59;;;-0.30;89.83
10978;BME280;5542;48.272;10.794;2023-01-26T03:27:14;95939.72;;;-0.26;88.88
10978;BME280;5542;48.272;10.794;2023-01-26T03:29:53;95942.94;;;-0.32;88.80
10978;BME280;5542;48.272;10.794;2023-01-26T03:32:20;95929.50;;;-0.35;88.90
10978;BME280;5542;48.272;10.794;2023-01-26T03:34:47;95935.19;;;-0.32;88.87
10978;BME280;5542;48.272;10.794;2023-01-26T03:37:14;95928.06;;;-0.30;88.36
10978;BME280;5542;48.272;10.794;2023-01-26T03:39:40;95935.81;;;-0.38;88.38
10978;BME280;5542;48.272;10.794;2023-01-26T03:42:25;95928.69;;;-0.36;88.91
10978;BME280;5542;48.272;10.794;2023-01-26T03:45:09;95931.13;;;-0.34;88.48
10978;BME280;5542;48.272;10.794;2023-01-26T03:48:03;95917.72;;;-0.38;88.05
10978;BME280;5542;48.272;10.794;2023-01-26T03:50:47;95918.53;;;-0.37;87.34
10978;BME280;5542;48.272;10.794;2023-01-26T03:53:32;95914.00;;;-0.35;87.55
10978;BME280;5542;48.272;10.794;2023-01-26T03:56:15;95913.69;;;-0.32;87.35
10978;BME280;5542;48.272;10.794;2023-01-26T03:58:45;95914.81;;;-0.35;87.63
10978;BME280;5542;48.272;10.794;2023-01-26T04:01:12;95912.91;;;-0.33;87.81
10978;BME280;5542;48.272;10.794;2023-01-26T04:03:46;95909.16;;;-0.30;87.69
10978;BME280;5542;48.272;10.794;2023-01-26T04:06:31;95914.81;;;-0.35;87.46
10978;BME280;5542;48.272;10.794;2023-01-26T04:09:15;95911.25;;;-0.34;87.75
10978;BME280;5542;48.272;10.794;2023-01-26T04:11:42;95914.84;;;-0.27;87.73
10978;BME280;5542;48.272;10.794;2023-01-26T04:14:10;95915.81;;;-0.28;86.76
10978;BME280;5542;48.272;10.794;2023-01-26T04:16:54;95916.75;;;-0.29;87.14
10978;BME280;5542;48.272;10.794;2023-01-26T04:19:40;95911.59;;;-0.29;86.97
10978;BME280;5542;48.272;10.794;2023-01-26T04:22:24;95916.28;;;-0.32;86.89
10978;BME280;5542;48.272;10.794;2023-01-26T04:24:50;95913.53;;;-0.31;86.95
10978;BME280;5542;48.272;10.794;2023-01-26T04:27:17;95906.91;;;-0.33;86.89
10978;BME280;5542;48.272;10.794;2023-01-26T04:29:44;95900.28;;;-0.36;86.92
10978;BME280;5542;48.272;10.794;2023-01-26T04:32:10;95906.53;;;-0.38;86.89
10978;BME280;5542;48.272;10.794;2023-01-26T04:34:37;95907.38;;;-0.38;86.87
10978;BME280;5542;48.272;10.794;2023-01-26T04:37:05;95900.44;;;-0.37;87.14
10978;BME280;5542;48.272;10.794;2023-01-26T04:39:31;95907.22;;;-0.36;86.56
10978;BME280;5542;48.272;10.794;2023-01-26T04:41:58;95905.28;;;-0.34;85.93
10978;BME280;5542;48.272;10.794;2023-01-26T04:44:24;95908.97;;;-0.45;86.12
10978;BME280;5542;48.272;10.794;2023-01-26T04:46:51;95901.84;;;-0.51;85.90
10978;BME280;5542;48.272;10.794;2023-01-26T04:49:17;95900.34;;;-0.62;86.37
10978;BME280;5542;48.272;10.794;2023-01-26T04:51:44;95902.59;;;-0.59;86.91
10978;BME280;5542;48.272;10.794;2023-01-26T04:54:12;95904.66;;;-0.62;86.96
10978;BME280;5542;48.272;10.794;2023-01-26T04:56:38;95910.34;;;-0.59;86.99
10978;BME280;5542;48.272;10.794;2023-01-26T04:59:06;95909.69;;;-0.61;86.95
10978;BME280;5542;48.272;10.794;2023-01-26T05:01:33;95906.97;;;-0.59;86.71
10978;BME280;5542;48.272;10.794;2023-01-26T05:04:00;95904.53;;;-0.61;87.11
10978;BME280;5542;48.272;10.794;2023-01-26T05:06:27;95899.72;;;-0.56;87.09
10978;BME280;5542;48.272;10.794;2023-01-26T05:08:54;95902.81;;;-0.52;87.21
10978;BME280;5542;48.272;10.794;2023-01-26T05:11:22;95906.03;;;-0.50;87.19
10978;BME280;5542;48.272;10.794;2023-01-26T05:13:49;95900.56;;;-0.47;87.45
10978;BME280;5542;48.272;10.794;2023-01-26T05:16:15;95897.31;;;-0.49;87.49
10978;BME280;5542;48.272;10.794;2023-01-26T05:18:42;95900.56;;;-0.47;87.32
10978;BME280;5542;48.272;10.794;2023-01-26T05:21:09;95906.84;;;-0.49;87.62
10978;BME280;5542;48.272;10.794;2023-01-26T05:23:36;95903.78;;;-0.45;87.53
10978;BME280;5542;48.272;10.794;2023-01-26T05:26:03;95904.81;;;-0.38;87.74
10978;BME280;5542;48.272;10.794;2023-01-26T05:28:32;95902.56;;;-0.33;87.53
10978;BME280;5542;48.272;10.794;2023-01-26T05:30:59;95903.84;;;-0.29;87.79
10978;BME280;5542;48.272;10.794;2023-01-26T05:33:25;95902.56;;;-0.33;87.49
10978;BME280;5542;48.272;10.794;2023-01-26T05:35:52;95905.44;;;-0.36;86.92
10978;BME280;5542;48.272;10.794;2023-01-26T05:38:20;95909.13;;;-0.38;87.08
10978;BME280;5542;48.272;10.794;2023-01-26T05:40:46;95912.84;;;-0.41;85.87
10978;BME280;5542;48.272;10.794;2023-01-26T05:43:13;95920.88;;;-0.52;85.84
10978;BME280;5542;48.272;10.794;2023-01-26T05:45:41;95919.41;;;-0.55;86.27
10978;BME280;5542;48.272;10.794;2023-01-26T05:48:07;95921.53;;;-0.50;86.46
10978;BME280;5542;48.272;10.794;2023-01-26T05:50:34;95914.94;;;-0.44;87.11
10978;BME280;5542;48.272;10.794;2023-01-26T05:53:00;95914.94;;;-0.44;86.92
10978;BME280;5542;48.272;10.794;2023-01-26T05:55:27;95910.56;;;-0.44;87.21
10978;BME280;5542;48.272;10.794;2023-01-26T05:57:54;95915.78;;;-0.36;87.20
10978;BME280;5542;48.272;10.794;2023-01-26T06:00:21;95912.91;;;-0.24;86.95
10978;BME280;5542;48.272;10.794;2023-01-26T06:02:49;95915.50;;;-0.24;87.09
10978;BME280;5542;48.272;10.794;2023-01-26T06:05:16;95913.22;;;-0.28;87.28
10978;BME280;5542;48.272;10.794;2023-01-26T06:07:42;95913.38;;;-0.29;87.84
10978;BME280;5542;48.272;10.794;2023-01-26T06:10:10;95919.34;;;-0.29;88.29
10978;BME280;5542;48.272;10.794;2023-01-26T06:12:36;95920.00;;;-0.27;88.35
10978;BME280;5542;48.272;10.794;2023-01-26T06:15:04;95918.88;;;-0.24;88.63
10978;BME280;5542;48.272;10.794;2023-01-26T06:17:31;95911.00;;;-0.22;88.39
10978;BME280;5542;48.272;10.794;2023-01-26T06:19:59;95916.78;;;-0.20;88.24
10978;BME280;5542;48.272;10.794;2023-01-26T06:22:26;95914.22;;;-0.20;88.46
10978;BME280;5542;48.272;10.794;2023-01-26T06:24:52;95914.88;;;-0.18;88.50
10978;BME280;5542;48.272;10.794;2023-01-26T06:27:19;95913.75;;;-0.16;88.12
10978;BME280;5542;48.272;10.794;2023-01-26T06:29:46;95918.09;;;-0.16;87.45
10978;BME280;5542;48.272;10.794;2023-01-26T06:32:13;95907.25;;;-0.20;87.14
10978;BME280;5542;48.272;10.794;2023-01-26T06:34:40;95907.13;;;-0.18;86.92
10978;BME280;5542;48.272;10.794;2023-01-26T06:37:08;95903.41;;;-0.16;86.82
10978;BME280;5542;48.272;10.794;2023-01-26T06:39:35;95908.91;;;-0.19;86.56
10978;BME280;5542;48.272;10.794;2023-01-26T06:42:01;95900.78;;;-0.24;86.54
10978;BME280;5542;48.272;10.794;2023-01-26T06:44:28;95902.72;;;-0.26;86.51
10978;BME280;5542;48.272;10.794;2023-01-26T06:46:55;95907.13;;;-0.18;85.81
10978;BME280;5542;48.272;10.794;2023-01-26T06:49:21;95909.00;;;-0.29;85.37
10978;BME280;5542;48.272;10.794;2023-01-26T06:51:56;95908.38;;;-0.31;85.67
10978;BME280;5542;48.272;10.794;2023-01-26T06:54:25;95909.75;;;-0.44;85.99
10978;BME280;5542;48.272;10.794;2023-01-26T06:56:52;95913.16;;;-0.44;86.40
10978;BME280;5542;48.272;10.794;2023-01-26T06:59:18;95910.09;;;-0.39;86.31
10978;BME280;5542;48.272;10.794;2023-01-26T07:01:46;95905.75;;;-0.39;86.40
10978;BME280;5542;48.272;10.794;2023-01-26T07:04:14;95912.56;;;-0.38;86.20
10978;BME280;5542;48.272;10.794;2023-01-26T07:06:42;95909.97;;;-0.38;86.01
10978;BME280;5542;48.272;10.794;2023-01-26T07:09:09;95913.34;;;-0.37;85.79
10978;BME280;5542;48.272;10.794;2023-01-26T07:11:37;95912.69;;;-0.39;85.69
10978;BME280;5542;48.272;10.794;2023-01-26T07:14:04;95907.97;;;-0.44;85.73
10978;BME280;5542;48.272;10.794;2023-01-26T07:16:30;95906.22;;;-0.43;86.38
10978;BME280;5542;48.272;10.794;2023-01-26T07:18:57;95903.31;;;-0.40;86.24
10978;BME280;5542;48.272;10.794;2023-01-26T07:21:23;95899.47;;;-0.36;86.74
10978;BME280;5542;48.272;10.794;2023-01-26T07:23:50;95898.31;;;-0.34;86.63
10978;BME280;5542;48.272;10.794;2023-01-26T07:26:18;95893.84;;;-0.32;86.74
10978;BME280;5542;48.272;10.794;2023-01-26T07:28:46;95894.81;;;-0.33;86.82
10978;BME280;5542;48.272;10.794;2023-01-26T07:31:12;95895.59;;;-0.32;86.96
10978;BME280;5542;48.272;10.794;2023-01-26T07:33:39;95891.25;;;-0.32;87.23
10978;BME280;5542;48.272;10.794;2023-01-26T07:36:06;95888.31;;;-0.29;87.32
10978;BME280;5542;48.272;10.794;2023-01-26T07:38:33;95895.94;;;-0.27;87.62
10978;BME280;5542;48.272;10.794;2023-01-26T07:41:04;95890.78;;;-0.27;87.54
10978;BME280;5542;48.272;10.794;2023-01-26T07:43:32;95885.28;;;-0.24;86.95
10978;BME280;5542;48.272;10.794;2023-01-26T07:46:00;95889.34;;;-0.21;86.94
10978;BME280;5542;48.272;10.794;2023-01-26T07:48:26;95893.34;;;-0.27;86.36
10978;BME280;5542;48.272;10.794;2023-01-26T07:50:57;95895.44;;;-0.31;86.22
10978;BME280;5542;48.272;10.794;2023-01-26T07:53:25;95887.84;;;-0.32;86.64
10978;BME280;5542;48.272;10.794;2023-01-26T07:55:54;95895.94;;;-0.27;86.45
10978;BME280;5542;48.272;10.794;2023-01-26T07:58:21;95893.19;;;-0.26;86.48
10978;BME280;5542;48.272;10.794;2023-01-26T08:00:48;95892.91;;;-0.22;86.51
10978;BME280;5542;48.272;10.794;2023-01-26T08:03:16;95891.91;;;-0.21;86.63
10978;BME280;5542;48.272;10.794;2023-01-26T08:05:43;95892.56;;;-0.19;86.81
10978;BME280;5542;48.272;10.794;2023-01-26T08:08:09;95891.63;;;-0.18;87.12
10978;BME280;5542;48.272;10.794;2023-01-26T08:10:36;95880.81;;;-0.14;87.00
10978;BME280;5542;48.272;10.794;2023-01-26T08:13:03;95887.25;;;-0.18;86.97
10978;BME280;5542;48.272;10.794;2023-01-26T08:15:29;95881.91;;;-0.16;87.15
10978;BME280;5542;48.272;10.794;2023-01-26T08:17:56;95873.84;;;-0.13;86.98
10978;BME280;5542;48.272;10.794;2023-01-26T08:20:24;95876.56;;;-0.15;86.86
10978;BME280;5542;48.272;10.794;2023-01-26T08:22:51;95875.78;;;-0.15;86.48
10978;BME280;5542;48.272;10.794;2023-01-26T08:25:19;95871.28;;;-0.13;86.70
10978;BME280;5542;48.272;10.794;2023-01-26T08:27:45;95878.69;;;-0.10;86.94
10978;BME280;5542;48.272;10.794;2023-01-26T08:30:12;95873.69;;;-0.12;86.90
10978;BME280;5542;48.272;10.794;2023-01-26T08:32:40;95875.28;;;-0.11;86.96
10978;BME280;5542;48.272;10.794;2023-01-26T08:35:07;95867.53;;;-0.11;86.76
10978;BME280;5542;48.272;10.794;2023-01-26T08:37:35;95868.81;;;-0.15;86.53
10978;BME280;5542;48.272;10.794;2023-01-26T08:40:02;95869.50;;;-0.13;87.16
10978;BME280;5542;48.272;10.794;2023-01-26T08:42:28;95871.59;;;-0.08;86.93
10978;BME280;5542;48.272;10.794;2023-01-26T08:44:55;95873.25;;;0.01;86.40
10978;BME280;5542;48.272;10.794;2023-01-26T08:47:21;95868.38;;;-0.02;85.78
10978;BME280;5542;48.272;10.794;2023-01-26T08:49:48;95872.75;;;-0.03;86.10
10978;BME280;5542;48.272;10.794;2023-01-26T08:52:14;95871.63;;;0.00;86.29
10978;BME280;5542;48.272;10.794;2023-01-26T08:54:43;95867.22;;;-0.08;85.90
10978;BME280;5542;48.272;10.794;2023-01-26T08:57:09;95873.03;;;-0.06;85.68
10978;BME280;5542;48.272;10.794;2023-01-26T08:59:36;95867.06;;;-0.06;85.49
10978;BME280;5542;48.272;10.794;2023-01-26T09:02:03;95861.09;;;-0.07;85.52
10978;BME280;5542;48.272;10.794;2023-01-26T09:04:29;95867.06;;;-0.06;85.49
10978;BME280;5542;48.272;10.794;2023-01-26T09:06:56;95865.16;;;-0.04;85.40
10978;BME280;5542;48.272;10.794;2023-01-26T09:09:23;95862.22;;;-0.09;85.31
10978;BME280;5542;48.272;10.794;2023-01-26T09:11:53;95869.31;;;-0.11;85.61
10978;BME280;5542;48.272;10.794;2023-01-26T09:14:20;95869.81;;;-0.08;85.75
10978;BME280;5542;48.272;10.794;2023-01-26T09:16:48;95866.25;;;-0.07;85.81
10978;BME280;5542;48.272;10.794;2023-01-26T09:19:14;95873.53;;;-0.02;85.80
10978;BME280;5542;48.272;10.794;2023-01-26T09:21:41;95876.16;;;0.06;85.21
10978;BME280;5542;48.272;10.794;2023-01-26T09:24:08;95876.78;;;0.00;85.01
10978;BME280;5542;48.272;10.794;2023-01-26T09:26:34;95881.78;;;-0.07;84.99
10978;BME280;5542;48.272;10.794;2023-01-26T09:29:02;95878.56;;;-0.09;85.45
10978;BME280;5542;48.272;10.794;2023-01-26T09:31:29;95883.38;;;-0.06;85.80
10978;BME280;5542;48.272;10.794;2023-01-26T09:33:56;95875.50;;;-0.04;86.00
10978;BME280;5542;48.272;10.794;2023-01-26T09:36:22;95875.31;;;-0.03;86.00
10978;BME280;5542;48.272;10.794;2023-01-26T09:38:49;95877.09;;;-0.03;85.93
10978;BME280;5542;48.272;10.794;2023-01-26T09:41:33;95880.50;;;-0.03;86.17
10978;BME280;5542;48.272;10.794;2023-01-26T09:44:08;95880.19;;;0.01;86.42
10978;BME280;5542;48.272;10.794;2023-01-26T09:46:45;95879.38;;;0.08;85.87
10978;BME280;5542;48.272;10.794;2023-01-26T09:49:19;95877.75;;;0.07;84.93
10978;BME280;5542;48.272;10.794;2023-01-26T09:51:52;95880.53;;;0.06;83.86
10978;BME280;5542;48.272;10.794;2023-01-26T09:54:25;95875.00;;;0.01;82.96
10978;BME280;5542;48.272;10.794;2023-01-26T09:56:59;95873.22;;;-0.07;83.15
10978;BME280;5542;48.272;10.794;2023-01-26T09:59:31;95876.78;;;-0.08;83.18
10978;BME280;5542;48.272;10.794;2023-01-26T10:02:04;95873.22;;;-0.07;83.16
10978;BME280;5542;48.272;10.794;2023-01-26T10:04:42;95872.56;;;-0.01;83.52
10978;BME280;5542;48.272;10.794;2023-01-26T10:07:12;95869.50;;;0.04;83.51
10978;BME280;5542;48.272;10.794;2023-01-26T10:09:41;95872.75;;;0.14;83.01
10978;BME280;5542;48.272;10.794;2023-01-26T10:12:15;95875.00;;;0.09;82.77
10978;BME280;5542;48.272;10.794;2023-01-26T10:14:49;95875.44;;;-0.20;84.60
10978;BME280;5542;48.272;10.794;2023-01-26T10:17:19;95866.72;;;-0.19;85.46
10978;BME280;5542;48.272;10.794;2023-01-26T10:19:51;95869.00;;;-0.08;85.69
10978;BME280;5542;48.272;10.794;2023-01-26T10:22:26;95873.38;;;-0.09;85.33
10978;BME280;5542;48.272;10.794;2023-01-26T10:24:58;95865.44;;;-0.15;85.52
10978;BME280;5542;48.272;10.794;2023-01-26T10:27:26;95867.38;;;-0.17;85.29
10978;BME280;5542;48.272;10.794;2023-01-26T10:29:54;95863.16;;;-0.27;85.69
10978;BME280;5542;48.272;10.794;2023-01-26T10:32:21;95867.38;;;-0.17;85.29
10978;BME280;5542;48.272;10.794;2023-01-26T10:34:48;95860.13;;;-0.14;84.56
10978;BME280;5542;48.272;10.794;2023-01-26T10:37:22;95862.16;;;-0.34;85.16
10978;BME280;5542;48.272;10.794;2023-01-26T10:39:57;95859.72;;;-0.35;85.55
10978;BME280;5542;48.272;10.794;2023-01-26T10:42:27;95860.72;;;-0.28;86.02
10978;BME280;5542;48.272;10.794;2023-01-26T10:44:57;95861.38;;;-0.26;85.01
10978;BME280;5542;48.272;10.794;2023-01-26T10:47:24;95857.69;;;-0.23;84.65
10978;BME280;5542;48.272;10.794;2023-01-26T10:49:51;95850.22;;;-0.27;83.42
10978;BME280;5542;48.272;10.794;2023-01-26T10:52:20;95848.31;;;-0.16;83.42
10978;BME280;5542;48.272;10.794;2023-01-26T10:54:50;95849.91;;;-0.15;83.73
10978;BME280;5542;48.272;10.794;2023-01-26T10:57:25;95844.63;;;-0.14;84.07
10978;BME280;5542;48.272;10.794;2023-01-26T10:59:56;95846.19;;;-0.21;84.58
10978;BME280;5542;48.272;10.794;2023-01-26T11:02:26;95847.94;;;-0.38;85.68
10978;BME280;5542;48.272;10.794;2023-01-26T11:05:18;95839.69;;;-0.41;86.92
10978;BME280;5542;48.272;10.794;2023-01-26T11:07:46;95843.09;;;-0.41;87.07
10978;BME280;5542;48.272;10.794;2023-01-26T11:10:23;95842.59;;;-0.44;87.34
10978;BME280;5542;48.272;10.794;2023-01-26T11:13:05;95849.69;;;-0.38;88.11
10978;BME280;5542;48.272;10.794;2023-01-26T11:15:36;95846.97;;;-0.29;88.25
10978;BME280;5542;48.272;10.794;2023-01-26T11:18:10;95841.34;;;-0.16;86.51
10978;BME280;5542;48.272;10.794;2023-01-26T11:20:48;95840.84;;;-0.19;85.08
10978;BME280;5542;48.272;10.794;2023-01-26T11:23:23;95844.72;;;-0.32;85.90
10978;BME280;5542;48.272;10.794;2023-01-26T11:26:10;95845.38;;;-0.30;86.76
10978;BME280;5542;48.272;10.794;2023-01-26T11:28:51;95839.84;;;-0.35;86.13
10978;BME280;5542;48.272;10.794;2023-01-26T11:31:34;95852.78;;;-0.35;85.27
10978;BME280;5542;48.272;10.794;2023-01-26T11:34:11;95853.75;;;-0.36;86.27
10978;BME280;5542;48.272;10.794;2023-01-26T11:36:48;95845.66;;;-0.41;86.90
10978;BME280;5542;48.272;10.794;2023-01-26T11:39:22;95838.41;;;-0.37;87.34
10978;BME280;5542;48.272;10.794;2023-01-26T11:42:03;95836.81;;;-0.30;87.63
10978;BME280;5542;48.272;10.794;2023-01-26T11:44:47;95840.38;;;-0.23;87.45
10978;BME280;5542;48.272;10.794;2023-01-26T11:47:28;95830.84;;;-0.14;87.43
10978;BME280;5542;48.272;10.794;2023-01-26T11:50:17;95830.06;;;-0.07;87.70
10978;BME280;5542;48.272;10.794;2023-01-26T11:52:53;95826.19;;;-0.11;87.76
10978;BME280;5542;48.272;10.794;2023-01-26T11:55:31;95823.44;;;-0.01;88.08
10978;BME280;5542;48.272;10.794;2023-01-26T11:58:11;95822.50;;;0.24;85.99
10978;BME280;5542;48.272;10.794;2023-01-26T12:00:42;95824.78;;;0.19;85.86
10978;BME280;5542;48.272;10.794;2023-01-26T12:03:19;95820.41;;;0.20;85.09
10978;BME280;5542;48.272;10.794;2023-01-26T12:05:51;95821.69;;;0.24;85.01
10978;BME280;5542;48.272;10.794;2023-01-26T12:08:22;95815.88;;;0.22;84.34
10978;BME280;5542;48.272;10.794;2023-01-26T12:10:58;95822.00;;;0.13;85.05
10978;BME280;5542;48.272;10.794;2023-01-26T12:13:53;95817.00;;;0.11;85.80
10978;BME280;5542;48.272;10.794;2023-01-26T12:16:27;95812.16;;;0.16;85.74
10978;BME280;5542;48.272;10.794;2023-01-26T12:19:04;95812.78;;;0.18;85.47
10978;BME280;5542;48.272;10.794;2023-01-26T12:21:36;95807.28;;;0.21;85.38
10978;BME280;5542;48.272;10.794;2023-01-26T12:24:04;95810.19;;;0.18;85.07
10978;BME280;5542;48.272;10.794;2023-01-26T12:26:35;95802.28;;;0.04;84.67
10978;BME280;5542;48.272;10.794;2023-01-26T12:29:12;95806.97;;;-0.08;85.09
10978;BME280;5542;48.272;10.794;2023-01-26T12:31:45;95795.00;;;-0.09;85.21
10978;BME280;5542;48.272;10.794;2023-01-26T12:34:14;95794.50;;;0.04;85.35
10978;BME280;5542;48.272;10.794;2023-01-26T12:36:46;95790.97;;;0.05;85.56
10978;BME280;5542;48.272;10.794;2023-01-26T12:39:23;95794.69;;;0.10;85.62
10978;BME280;5542;48.272;10.794;2023-01-26T12:42:14;95790.81;;;0.14;85.37
10978;BME280;5542;48.272;10.794;2023-01-26T12:44:46;95777.88;;;0.22;85.17
10978;BME280;5542;48.272;10.794;2023-01-26T12:47:20;95779.81;;;0.20;85.18
10978;BME280;5542;48.272;10.794;2023-01-26T12:49:55;95778.84;;;0.21;85.28
10978;BME280;5542;48.272;10.794;2023-01-26T12:52:27;95777.25;;;0.29;84.76
10978;BME280;5542;48.272;10.794;2023-01-26T12:54:59;95784.81;;;0.22;84.56
10978;BME280;5542;48.272;10.794;2023-01-26T12:57:33;95786.28;;;0.16;84.36
10978;BME280;5542;48.272;10.794;2023-01-26T13:00:04;95775.44;;;0.21;82.80
10978;BME280;5542;48.272;10.794;2023-01-26T13:02:34;95773.84;;;0.12;82.59
10978;BME280;5542;48.272;10.794;2023-01-26T13:05:04;95775.44;;;0.05;82.58
10978;BME280;5542;48.272;10.794;2023-01-26T13:07:34;95777.88;;;-0.02;82.07
10978;BME280;5542;48.272;10.794;2023-01-26T13:10:25;95777.72;;;-0.09;82.16
10978;BME280;5542;48.272;10.794;2023-01-26T13:12:58;95776.91;;;-0.09;82.24
10978;BME280;5542;48.272;10.794;2023-01-26T13:15:27;95773.50;;;-0.02;82.39
10978;BME280;5542;48.272;10.794;2023-01-26T13:17:56;95767.84;;;-0.05;82.47